LGSA/CHQ METAR and TAF weather

Enter ICAO airport designator
Station Type Date Time Source
LGSA METAR 2021/04/17 03:20 UTC NOAA

LGSA 170320Z 00000KT 9999 FEW006 SCT080 14/14 Q1007


Station Type Date Time Source
LGSA Decoded METAR 2021/04/17 03:20 UTC NOAA

Souda Airport , Greece (LGSA) 35-29N 024-07E 151M
Apr 16, 2021 - 11:20 PM EDT / 2021.04.17 0320 UTC
Wind: Calm:0
Visibility: greater than 7 mile(s):0
Sky conditions: partly cloudy
Temperature: 57 F (14 C)
Dew Point: 57 F (14 C)
Relative Humidity: 100%
Pressure (altimeter): 29.74 in. Hg (1007 hPa)
ob: LGSA 170320Z 00000KT 9999 FEW006 SCT080 14/14 Q1007
cycle: 3

Station Type Date Time Source
LGSA TAF 2021/04/16 18:15 UTC NOAA

TAF LGSA 161700Z 1618/1718 05012KT 9999 FEW015 SCT025
TEMPO 1618/1622 07015G25KT
BECMG 1707/1709 32012KT

Example: see airport list